Walcourt, Belgium
Current Conditions -  °F | °C
As of 12:55 AM on Thursday 23 Oct 2014 (Local Time) from EBFS Reporting Station
Broken Clouds Broken Clouds  
Wind Chill: 41°   Ceiling: 4600
Heat Index: 45°   Visibility: 6mi
Dew Point: 41°   Wind: 7mph
Humidity: 87%   Direction: 260°W
Pressure: 30.24"   Gusts: NA
Location:  50.25°N, 4.44°E
Report Text: EBFS 222255Z 26006KT 9999 FEW024 BKN046 07/05 Q1024 BLU
Loading
Personal Weather Stations






























Interactive Weather Map
Tropical Storm Tracking
New forecast layout! Learn more

10-Day Weather Forecast

Advertisements
Track Severe Weather on mobile